Time;durP1;ratioP1;P1;durP2;ratioP2;P2;SDS_P1;SDS_P2;PMS_P1;PMS_P2;Temp;Humidity;BMP_temperature;BMP_pressure;BME280_temperature;BME280_humidity;BME280_pressure;Samples;Min_cycle;Max_cycle;Signal;HPM_P1;HPM_P2
2021/11/12 00:04:24;;;;;;;66.15;33.78;;;;;;;6.39;94.53;101914.34;5072279;28;20055;-74
2021/11/12 00:12:31;;;;;;;;;;;;;;;6.33;95.10;101906.50;5072124;28;20562;-74
2021/11/12 00:14:59;;;;;;;55.60;31.35;;;;;;;6.26;95.26;101910.69;5077193;28;19920;-74
2021/11/12 00:17:29;;;;;;;61.97;32.00;;;;;;;6.22;95.15;101907.19;5075916;28;20059;-74
2021/11/12 00:19:57;;;;;;;64.38;32.15;;;;;;;6.19;95.44;101906.25;5078322;28;20072;-74
2021/11/12 00:22:23;;;;;;;65.47;32.55;;;;;;;6.20;95.21;101916.63;5068974;28;20044;-75
2021/11/12 00:24:53;;;;;;;62.75;31.95;;;;;;;6.15;95.20;101907.91;5077310;28;20150;-74
2021/11/12 00:27:20;;;;;;;61.42;32.92;;;;;;;6.18;94.63;101902.81;5076241;28;20040;-74
2021/11/12 00:29:50;;;;;;;58.42;29.98;;;;;;;6.18;95.08;101899.38;5076706;28;20538;-74
2021/11/12 00:32:25;;;;;;;62.22;30.85;;;;;;;6.13;94.96;101898.41;5072145;28;20049;-74
2021/11/12 00:35:04;;;;;;;57.85;30.40;;;;;;;6.13;94.63;101898.41;5063439;28;20059;-73
2021/11/12 00:37:45;;;;;;;56.90;30.67;;;;;;;6.13;94.97;101907.03;5065452;28;20114;-73
2021/11/12 00:40:16;;;;;;;58.08;30.98;;;;;;;6.01;94.99;101909.38;5064520;28;20041;-75
2021/11/12 00:42:46;;;;;;;65.00;32.20;;;;;;;5.96;95.46;101905.78;5059377;28;20048;-73
2021/11/12 00:45:18;;;;;;;51.42;30.02;;;;;;;5.97;95.38;101903.25;5061407;28;20120;-74
2021/11/12 00:47:47;;;;;;;54.35;29.48;;;;;;;6.00;94.66;101903.31;5068329;28;20045;-74
2021/11/12 00:55:49;;;;;;;55.17;30.52;;;;;;;5.91;94.69;101900.53;5060619;28;20070;-74
2021/11/12 00:58:18;;;;;;;47.55;28.48;;;;;;;5.90;94.36;101906.53;5060431;28;20040;-74
2021/11/12 01:00:45;;;;;;;53.50;28.45;;;;;;;5.89;94.36;101905.69;5063005;28;20067;-73
2021/11/12 01:03:12;;;;;;;53.35;29.52;;;;;;;5.85;94.02;101903.88;5059247;28;20048;-74
2021/11/12 01:05:39;;;;;;;54.67;27.92;;;;;;;5.74;94.16;101898.53;5062998;28;20048;-73
2021/11/12 01:08:08;;;;;;;53.92;27.70;;;;;;;5.71;94.40;101897.59;5058574;28;20568;-74
2021/11/12 01:10:36;;;;;;;49.00;26.90;;;;;;;5.68;94.21;101890.66;5058146;28;20041;-73
2021/11/12 01:13:05;;;;;;;55.63;28.58;;;;;;;5.57;94.14;101895.59;5062091;28;20044;-74
2021/11/12 01:15:32;;;;;;;46.70;25.30;;;;;;;5.55;94.32;101891.25;5056272;28;20646;-74
2021/11/12 01:17:58;;;;;;;50.85;26.65;;;;;;;5.48;94.09;101886.81;5061768;28;20124;-74
2021/11/12 01:20:25;;;;;;;53.00;26.83;;;;;;;5.45;94.43;101887.59;5064355;28;20044;-74
2021/11/12 01:22:51;;;;;;;42.22;25.80;;;;;;;5.40;94.11;101884.91;5061289;28;20045;-74
2021/11/12 01:25:21;;;;;;;47.33;26.35;;;;;;;5.36;94.44;101877.09;5059222;28;20405;-75
2021/11/12 01:27:48;;;;;;;45.08;27.10;;;;;;;5.26;94.35;101869.16;5063295;28;20052;-75
2021/11/12 01:30:17;;;;;;;49.38;26.50;;;;;;;5.16;94.66;101863.78;5061535;28;20067;-75
2021/11/12 01:32:45;;;;;;;47.72;26.65;;;;;;;5.13;94.63;101870.59;5059185;28;20391;-74
2021/11/12 01:35:12;;;;;;;44.53;24.67;;;;;;;5.00;94.99;101858.28;5057347;28;20037;-74
2021/11/12 01:37:42;;;;;;;47.47;25.02;;;;;;;5.00;94.78;101847.09;5060388;28;20045;-74
2021/11/12 01:40:18;;;;;;;50.40;25.50;;;;;;;4.95;95.27;101845.28;5059899;28;20056;-74
2021/11/12 01:43:06;;;;;;;44.95;24.75;;;;;;;4.90;94.81;101835.72;5061320;28;20059;-74
2021/11/12 01:48:40;;;;;;;47.53;24.90;;;;;;;4.76;94.90;101837.97;5047805;28;20044;-73
2021/11/12 01:51:10;;;;;;;44.50;23.73;;;;;;;4.76;94.81;101833.72;5063437;28;20052;-74
2021/11/12 01:53:39;;;;;;;43.08;23.35;;;;;;;4.76;95.11;101840.56;5051749;28;20057;-75
2021/11/12 01:56:30;;;;;;;38.35;22.23;;;;;;;4.72;95.01;101838.75;5056257;28;20086;-75
2021/11/12 01:59:10;;;;;;;38.90;22.45;;;;;;;4.67;95.19;101833.50;5061164;28;20514;-76
2021/11/12 02:01:44;;;;;;;41.08;23.05;;;;;;;4.62;95.04;101827.34;5061731;28;20044;-76
2021/11/12 02:04:13;;;;;;;40.63;22.05;;;;;;;4.54;94.84;101827.19;5061926;28;20040;-74
2021/11/12 02:06:41;;;;;;;37.05;22.13;;;;;;;4.54;95.06;101822.06;5058667;28;20081;-74
2021/11/12 02:09:16;;;;;;;36.20;21.75;;;;;;;4.50;95.62;101826.22;5057539;28;20084;-72
2021/11/12 02:11:45;;;;;;;39.22;21.58;;;;;;;4.49;95.47;101826.22;5056115;28;20131;-74
2021/11/12 02:14:12;;;;;;;38.92;21.15;;;;;;;4.49;95.60;101831.34;5054743;28;20048;-74
2021/11/12 02:16:44;;;;;;;42.08;20.73;;;;;;;4.49;95.92;101823.63;5059805;28;20053;-75
2021/11/12 02:19:11;;;;;;;39.00;22.25;;;;;;;4.47;95.55;101820.13;5058238;28;20082;-74
2021/11/12 02:21:46;;;;;;;35.80;20.65;;;;;;;4.43;95.15;101813.19;5061452;28;20080;-75
2021/11/12 02:24:15;;;;;;;39.28;21.02;;;;;;;4.45;95.58;101811.50;5059581;28;20052;-75
2021/11/12 02:26:44;;;;;;;42.25;21.08;;;;;;;4.36;95.71;101807.03;5061665;28;20051;-75
2021/11/12 02:29:12;;;;;;;36.58;20.08;;;;;;;4.35;95.66;101813.84;5064057;28;20044;-74
2021/11/12 02:31:39;;;;;;;35.78;19.77;;;;;;;4.38;95.62;101807.03;5057504;28;20044;-74
2021/11/12 02:34:10;;;;;;;36.15;19.40;;;;;;;4.36;95.96;101807.03;5060930;28;20048;-74
2021/11/12 02:36:37;;;;;;;35.83;19.63;;;;;;;4.28;95.98;101801.69;5058409;28;20052;-75
2021/11/12 02:39:08;;;;;;;38.17;20.60;;;;;;;4.27;96.14;101804.22;5065933;28;20040;-75
2021/11/12 02:41:35;;;;;;;34.13;19.67;;;;;;;4.30;96.21;101794.88;5057642;28;20449;-73
2021/11/12 02:44:02;;;;;;;35.30;19.10;;;;;;;4.33;96.13;101794.06;5048169;28;20102;-73
2021/11/12 02:46:30;;;;;;;32.33;18.25;;;;;;;4.30;96.08;101796.56;5056119;28;20053;-75
2021/11/12 02:48:58;;;;;;;38.38;21.02;;;;;;;4.27;96.14;101794.78;5061186;28;20082;-75
2021/11/12 02:51:28;;;;;;;34.13;19.58;;;;;;;4.21;96.02;101792.06;5082809;22;20583;-74
2021/11/12 02:53:55;;;;;;;38.35;21.23;;;;;;;4.17;96.40;101791.13;5049439;28;21020;-74
2021/11/12 02:56:27;;;;;;;36.22;19.30;;;;;;;4.16;96.50;101781.66;5051263;28;20391;-74
2021/11/12 02:58:57;;;;;;;40.97;20.52;;;;;;;4.08;96.16;101779.72;5058489;28;20160;-73
2021/11/12 03:01:25;;;;;;;33.85;20.27;;;;;;;4.09;96.37;101776.31;5061112;28;20136;-74
2021/11/12 03:03:53;;;;;;;34.10;19.85;;;;;;;4.05;96.46;101765.94;5081758;28;20102;-74
2021/11/12 03:06:19;;;;;;;39.55;20.95;;;;;;;4.01;96.74;101763.25;5083277;28;20071;-74
2021/11/12 03:08:46;;;;;;;44.30;19.95;;;;;;;3.97;97.00;101757.16;5076600;28;20047;-74
2021/11/12 03:11:13;;;;;;;39.40;19.23;;;;;;;3.98;96.71;101756.31;5078776;28;20109;-74
2021/11/12 03:13:41;;;;;;;35.28;20.45;;;;;;;3.97;96.12;101754.59;5081279;28;20044;-73
2021/11/12 03:16:10;;;;;;;38.70;20.42;;;;;;;3.95;96.76;101753.66;5085195;28;20047;-75
2021/11/12 03:18:37;;;;;;;39.50;19.58;;;;;;;3.93;96.88;101759.63;5084495;28;20055;-74
2021/11/12 03:21:04;;;;;;;34.63;19.52;;;;;;;3.95;96.11;101758.81;5080192;28;20047;-74
2021/11/12 03:23:34;;;;;;;32.97;20.00;;;;;;;3.94;96.92;101749.38;5082721;28;20520;-74
2021/11/12 03:26:10;;;;;;;38.83;20.80;;;;;;;3.96;96.26;101744.25;5075916;28;20052;-74
2021/11/12 03:28:56;;;;;;;34.55;19.70;;;;;;;3.89;96.60;101743.22;5075590;28;20045;-74
2021/11/12 04:01:40;;;;;;;32.45;17.75;;;;;;;3.62;95.52;101764.88;5076916;28;20101;-74
2021/11/12 04:04:18;;;;;;;35.33;18.80;;;;;;;3.61;96.37;101762.25;5082225;28;20075;-74
2021/11/12 04:06:49;;;;;;;36.50;18.55;;;;;;;3.56;95.98;101765.59;5077155;28;20068;-74
2021/11/12 04:17:51;;;;;;;34.95;18.80;;;;;;;3.37;96.95;101759.06;5081039;28;20125;-75
2021/11/12 04:20:34;;;;;;;35.80;18.95;;;;;;;3.46;96.37;101755.00;5090357;28;20067;-74
2021/11/12 05:10:11;;;;;;;33.00;18.58;;;;;;;3.06;97.84;101711.94;5075740;28;20059;-76
2021/11/12 05:12:59;;;;;;;36.50;19.38;;;;;;;3.01;98.18;101702.38;5083150;28;20040;-76
2021/11/12 05:33:28;;;;;;;41.10;22.02;;;;;;;3.04;100.00;101694.75;5083019;28;20070;-75
2021/11/12 05:51:36;;;;;;;41.30;19.25;;;;;;;3.30;100.00;101649.16;5080621;28;20055;-77
2021/11/12 05:56:50;;;;;;;43.63;20.27;;;;;;;3.45;100.00;101634.94;5077067;28;20074;-77
2021/11/12 05:59:18;;;;;;;46.00;20.90;;;;;;;3.45;100.00;101633.25;5078423;28;20078;-76
2021/11/12 06:01:46;;;;;;;45.05;19.40;;;;;;;3.50;100.00;101620.50;5089066;28;20051;-76
2021/11/12 06:04:13;;;;;;;39.25;19.35;;;;;;;3.44;100.00;101620.38;5081503;28;20068;-77
2021/11/12 06:06:40;;;;;;;41.58;20.08;;;;;;;3.47;100.00;101616.16;5085040;28;20145;-77
2021/11/12 06:09:07;;;;;;;41.17;19.65;;;;;;;3.58;100.00;101613.84;5089024;28;20044;-77
2021/11/12 06:11:35;;;;;;;43.83;22.02;;;;;;;3.53;100.00;101608.56;5088233;28;20055;-77
2021/11/12 06:14:03;;;;;;;42.92;20.75;;;;;;;3.61;100.00;101603.63;5083000;28;20509;-76
2021/11/12 06:16:31;;;;;;;44.08;20.92;;;;;;;3.55;100.00;101599.19;5086504;28;20140;-76
2021/11/12 06:18:58;;;;;;;37.85;19.48;;;;;;;3.65;100.00;101584.84;5084734;28;20047;-76
2021/11/12 06:21:26;;;;;;;39.63;19.67;;;;;;;3.74;100.00;101577.31;5080802;28;20624;-76
2021/11/12 06:23:52;;;;;;;37.10;20.17;;;;;;;3.73;100.00;101575.63;5080086;28;20052;-76
2021/11/12 06:26:19;;;;;;;41.75;21.35;;;;;;;3.72;100.00;101567.84;5086934;28;20049;-76
2021/11/12 06:28:46;;;;;;;39.97;19.90;;;;;;;3.69;100.00;101560.94;5078986;28;20052;-77
2021/11/12 06:31:13;;;;;;;46.72;21.42;;;;;;;3.68;100.00;101558.34;5080818;28;20531;-76
2021/11/12 06:33:41;;;;;;;43.55;21.63;;;;;;;3.67;100.00;101556.59;5087174;28;20047;-76
2021/11/12 06:36:08;;;;;;;36.08;19.20;;;;;;;3.58;100.00;101552.97;5075122;28;20464;-75
2021/11/12 06:38:36;;;;;;;38.70;19.15;;;;;;;3.74;100.00;101559.31;5082902;28;20044;-75
2021/11/12 06:41:08;;;;;;;40.17;21.00;;;;;;;3.74;100.00;101567.03;5088317;28;20048;-76
2021/11/12 06:43:40;;;;;;;43.42;21.02;;;;;;;3.74;100.00;101582.47;5087674;28;20044;-76
2021/11/12 06:51:36;;;;;;;;;;;;;;;3.84;100.00;101582.69;5081172;28;20097;-75
2021/11/12 06:54:02;;;;;;;46.15;22.10;;;;;;;3.77;100.00;101570.50;5075782;28;19924;-73
2021/11/12 06:56:29;;;;;;;45.58;23.42;;;;;;;3.91;100.00;101565.66;5084311;28;20051;-75
2021/11/12 06:58:55;;;;;;;49.95;24.80;;;;;;;3.86;100.00;101569.03;5085714;28;20662;-75
2021/11/12 07:01:24;;;;;;;46.55;24.67;;;;;;;3.92;100.00;101555.41;5080661;28;20051;-75
2021/11/12 07:03:52;;;;;;;44.38;23.92;;;;;;;3.98;100.00;101554.69;5082735;28;20047;-76
2021/11/12 07:06:19;;;;;;;48.50;24.20;;;;;;;3.97;100.00;101538.34;5081659;28;20071;-76
2021/11/12 07:08:46;;;;;;;47.15;24.42;;;;;;;4.01;100.00;101540.16;5077151;28;20125;-76
2021/11/12 07:11:13;;;;;;;46.33;24.25;;;;;;;4.07;100.00;101529.13;5077824;28;20452;-76
2021/11/12 07:13:39;;;;;;;41.78;24.23;;;;;;;4.10;100.00;101531.75;5075073;28;20383;-78
2021/11/12 07:16:06;;;;;;;44.10;24.35;;;;;;;4.09;100.00;101524.91;5074587;28;20041;-76
2021/11/12 07:18:32;;;;;;;45.95;25.50;;;;;;;4.08;100.00;101523.16;5079071;28;20059;-76
2021/11/12 07:21:00;;;;;;;46.72;24.33;;;;;;;4.08;100.00;101537.72;5079934;28;20701;-75
2021/11/12 07:23:27;;;;;;;45.03;25.70;;;;;;;4.10;100.00;101546.34;5082933;28;20149;-76
2021/11/12 07:25:57;;;;;;;41.83;25.52;;;;;;;4.27;100.00;101559.56;5081250;28;20371;-76
2021/11/12 07:28:25;;;;;;;45.33;24.67;;;;;;;4.25;100.00;101566.38;5082004;28;20135;-76
2021/11/12 07:30:52;;;;;;;42.58;25.58;;;;;;;4.29;100.00;101563.91;5082154;28;20068;-76
2021/11/12 07:33:19;;;;;;;43.72;25.50;;;;;;;4.35;100.00;101563.16;5078197;28;20068;-76
2021/11/12 07:35:50;;;;;;;42.92;25.05;;;;;;;4.44;100.00;101565.91;5080717;28;20054;-76
2021/11/12 07:38:22;;;;;;;43.58;25.23;;;;;;;4.49;100.00;101566.00;5075626;28;20044;-75
2021/11/12 07:41:00;;;;;;;48.03;27.50;;;;;;;4.48;100.00;101574.56;5083557;28;20458;-77
2021/11/12 07:46:15;;;;;;;47.63;27.15;;;;;;;4.47;100.00;101578.88;5088884;28;20202;-75
2021/11/12 07:48:42;;;;;;;50.60;28.48;;;;;;;4.44;100.00;101563.34;5094357;28;20058;-76
2021/11/12 07:51:10;;;;;;;53.03;29.33;;;;;;;4.40;100.00;101564.09;5085552;28;20425;-75
2021/11/12 07:53:37;;;;;;;51.03;29.67;;;;;;;4.43;100.00;101561.59;5086220;28;20045;-73
2021/11/12 07:56:05;;;;;;;51.65;29.67;;;;;;;4.49;100.00;101559.13;5087363;28;20386;-75
2021/11/12 07:58:32;;;;;;;51.80;30.25;;;;;;;4.46;100.00;101560.78;5086469;28;20044;-76
2021/11/12 08:00:58;;;;;;;57.90;31.30;;;;;;;4.51;100.00;101559.19;5085633;28;20138;-76
2021/11/12 08:03:25;;;;;;;64.10;34.47;;;;;;;4.61;100.00;101555.94;5079236;28;20036;-77
2021/11/12 08:05:53;;;;;;;59.92;34.53;;;;;;;4.61;100.00;101561.09;5081622;28;20048;-75
2021/11/12 08:08:22;;;;;;;62.42;34.45;;;;;;;4.62;100.00;101552.53;5085882;28;20088;-76
2021/11/12 08:10:53;;;;;;;63.38;35.38;;;;;;;4.67;100.00;101561.19;5081840;28;20509;-77
2021/11/12 08:13:25;;;;;;;63.28;35.25;;;;;;;4.67;100.00;101557.75;5088340;28;20047;-76
2021/11/12 08:16:01;;;;;;;59.58;34.20;;;;;;;4.66;100.00;101556.88;5089663;28;20051;-73
2021/11/12 08:21:17;;;;;;;57.35;32.33;;;;;;;4.71;100.00;101561.25;5080177;28;20425;-75
2021/11/12 08:23:50;;;;;;;60.85;34.00;;;;;;;4.72;100.00;101563.84;5091448;28;20139;-76
2021/11/12 08:26:27;;;;;;;63.22;34.90;;;;;;;4.80;100.00;101566.56;5088035;28;20135;-75
2021/11/12 08:29:11;;;;;;;59.63;33.35;;;;;;;4.80;100.00;101564.00;5085675;28;20040;-75
2021/11/12 08:31:44;;;;;;;59.63;33.67;;;;;;;4.85;100.00;101564.06;5086251;28;20040;-76
2021/11/12 08:34:14;;;;;;;63.00;35.00;;;;;;;4.85;100.00;101558.91;5082074;28;20051;-77
2021/11/12 08:36:51;;;;;;;61.38;33.28;;;;;;;4.86;100.00;101558.94;5086271;28;20547;-76
2021/11/12 08:39:30;;;;;;;58.90;32.72;;;;;;;4.88;100.00;101559.84;5087697;28;20047;-74
2021/11/12 08:42:02;;;;;;;58.20;34.22;;;;;;;5.00;99.88;101563.47;5084784;28;20132;-77
2021/11/12 08:44:33;;;;;;;51.78;30.23;;;;;;;5.03;99.21;101563.53;5086273;28;20060;-78
2021/11/12 08:47:07;;;;;;;57.17;31.27;;;;;;;4.90;97.98;101549.53;5086613;28;20052;-74
2021/11/12 08:49:36;;;;;;;58.45;32.03;;;;;;;4.93;98.85;101563.38;5087172;28;20493;-76
2021/11/12 08:52:05;;;;;;;56.40;31.25;;;;;;;4.87;98.67;101560.69;5081909;28;20564;-75
2021/11/12 08:54:35;;;;;;;57.72;32.00;;;;;;;4.89;99.50;101564.16;5084626;28;21107;-75
2021/11/12 08:57:06;;;;;;;61.95;32.38;;;;;;;4.97;99.66;101559.16;5094318;22;20100;-73
2021/11/12 08:59:32;;;;;;;61.65;33.33;;;;;;;5.07;99.14;101545.56;5074980;28;20056;-75
2021/11/12 09:01:59;;;;;;;56.05;29.92;;;;;;;5.02;98.85;101544.59;5072902;28;20048;-74
2021/11/12 09:04:26;;;;;;;53.05;30.80;;;;;;;5.05;98.84;101549.81;5083981;28;20075;-75
2021/11/12 09:06:53;;;;;;;54.92;30.60;;;;;;;5.12;98.45;101537.91;5080498;28;20506;-74
2021/11/12 09:09:20;;;;;;;52.60;30.13;;;;;;;5.11;98.52;101536.16;5063110;28;20075;-74
2021/11/12 09:11:47;;;;;;;48.58;28.90;;;;;;;5.16;97.99;101533.66;5060744;28;20122;-75
2021/11/12 09:14:17;;;;;;;50.65;27.05;;;;;;;5.27;97.49;101530.41;5057513;28;20125;-75
2021/11/12 09:16:45;;;;;;;39.05;25.23;;;;;;;5.24;96.73;101532.91;5066511;28;20052;-74
2021/11/12 09:19:13;;;;;;;46.80;26.60;;;;;;;5.17;96.46;101528.50;5059693;28;20086;-75
2021/11/12 09:21:40;;;;;;;40.17;23.55;;;;;;;5.15;96.72;101530.19;5056082;28;20041;-74
2021/11/12 09:24:06;;;;;;;43.53;24.65;;;;;;;5.13;96.59;101526.75;5059719;28;20052;-75
2021/11/12 09:26:36;;;;;;;40.08;23.73;;;;;;;5.15;97.04;101519.88;5059347;28;20041;-75
2021/11/12 09:29:03;;;;;;;38.40;24.85;;;;;;;5.14;96.08;101497.53;5053209;28;20067;-75
2021/11/12 09:31:31;;;;;;;41.13;24.05;;;;;;;5.14;95.87;101490.66;5056634;28;20422;-74
2021/11/12 09:33:58;;;;;;;42.47;25.42;;;;;;;5.06;96.51;101481.06;5064424;28;20571;-75
2021/11/12 09:36:25;;;;;;;45.25;27.17;;;;;;;5.10;96.12;101483.72;5064794;28;20041;-74
2021/11/12 09:38:52;;;;;;;43.40;26.33;;;;;;;5.06;96.49;101470.75;5062046;28;20387;-75
2021/11/12 09:41:18;;;;;;;42.97;25.55;;;;;;;5.10;96.56;101470.81;5058184;28;20048;-74
2021/11/12 09:43:47;;;;;;;44.92;26.48;;;;;;;5.18;96.65;101473.50;5057075;28;20049;-74
2021/11/12 09:46:13;;;;;;;51.47;28.92;;;;;;;5.21;96.46;101468.41;5062004;28;20045;-72
2021/11/12 09:48:42;;;;;;;47.22;28.17;;;;;;;5.26;95.79;101460.75;5062853;28;20044;-75
2021/11/12 09:51:10;;;;;;;45.30;26.30;;;;;;;5.24;95.15;101459.84;5052746;28;20456;-73
2021/11/12 09:53:37;;;;;;;45.55;26.33;;;;;;;5.16;95.92;101441.66;5057078;28;20487;-71
2021/11/12 09:56:07;;;;;;;45.92;27.30;;;;;;;5.19;96.09;101440.88;5056200;28;20048;-72
2021/11/12 09:58:35;;;;;;;52.20;29.20;;;;;;;5.24;96.46;101434.91;5059529;28;20044;-72
2021/11/12 10:01:01;;;;;;;51.17;28.73;;;;;;;5.35;96.31;101431.59;5063161;28;20048;-70
2021/11/12 10:03:33;;;;;;;47.45;26.33;;;;;;;5.41;96.23;101431.72;5059571;28;20048;-72
2021/11/12 10:06:16;;;;;;;48.42;27.38;;;;;;;5.60;95.94;101432.78;5051399;28;20142;-72
2021/11/12 10:08:43;;;;;;;50.55;28.15;;;;;;;5.55;94.86;101443.06;5056705;28;20060;-72
2021/11/12 10:11:12;;;;;;;50.30;30.85;;;;;;;5.56;95.10;101457.69;5053853;28;20472;-74
2021/11/12 10:13:41;;;;;;;52.15;30.85;;;;;;;5.64;95.47;101456.97;5059185;28;20045;-72
2021/11/12 10:16:25;;;;;;;48.65;29.40;;;;;;;5.82;94.35;101458.88;5057481;28;20044;-73
2021/11/12 10:19:12;;;;;;;51.80;30.17;;;;;;;5.97;93.72;101443.59;5053729;28;20049;-70
2021/11/12 10:21:42;;;;;;;53.45;30.85;;;;;;;5.99;93.25;101430.69;5057467;28;20053;-73
2021/11/12 10:24:15;;;;;;;49.22;30.15;;;;;;;6.02;92.94;101430.75;5056640;28;20092;-73
2021/11/12 10:26:44;;;;;;;49.00;28.20;;;;;;;6.05;92.59;101431.66;5054334;28;20494;-72
2021/11/12 10:29:13;;;;;;;55.55;29.85;;;;;;;6.10;92.35;101436.88;5056020;28;20116;-72
2021/11/12 10:31:43;;;;;;;53.10;29.65;;;;;;;6.05;92.52;101421.31;5052600;28;20049;-72
2021/11/12 10:34:16;;;;;;;49.85;27.63;;;;;;;6.13;90.92;101420.53;5060108;28;20040;-72
2021/11/12 10:37:01;;;;;;;42.40;25.83;;;;;;;6.11;91.73;101415.34;5055405;28;20044;-72
2021/11/12 10:39:28;;;;;;;;;;;;;;;6.14;91.95;101407.63;5055334;28;20590;-71
2021/11/12 10:41:55;;;;;;;45.45;26.98;;;;;;;6.12;91.29;101411.94;5062592;28;19924;-72
2021/11/12 10:44:21;;;;;;;47.63;27.17;;;;;;;6.20;91.60;101420.59;5053081;28;20406;-71
2021/11/12 10:46:48;;;;;;;45.72;26.42;;;;;;;6.21;92.25;101406.84;5056724;28;20114;-73
2021/11/12 10:49:26;;;;;;;46.97;26.52;;;;;;;6.34;92.34;101404.34;5056738;28;20071;-72
2021/11/12 10:51:57;;;;;;;42.40;24.48;;;;;;;6.44;91.26;101405.31;5053509;28;20048;-71
2021/11/12 10:54:41;;;;;;;39.63;25.17;;;;;;;6.41;91.72;101388.06;5054313;28;20052;-71
2021/11/12 10:57:09;;;;;;;44.95;25.73;;;;;;;6.31;91.40;101386.25;5055515;28;20456;-72
2021/11/12 10:59:38;;;;;;;45.88;25.50;;;;;;;6.29;90.37;101380.22;5058754;28;20135;-72
2021/11/12 11:02:05;;;;;;;40.80;24.15;;;;;;;6.29;90.17;101381.06;5052920;28;20049;-73
2021/11/12 11:04:41;;;;;;;43.03;24.50;;;;;;;6.14;91.19;101383.50;5053860;28;20048;-73
2021/11/12 11:07:19;;;;;;;40.35;24.52;;;;;;;6.18;91.78;101393.03;5054737;28;20139;-73
2021/11/12 11:09:45;;;;;;;45.35;25.30;;;;;;;6.18;91.26;101380.97;5055663;28;20614;-72
2021/11/12 11:12:30;;;;;;;41.15;25.42;;;;;;;6.15;91.61;101374.91;5055142;28;20048;-73
2021/11/12 11:15:15;;;;;;;39.42;24.15;;;;;;;6.10;91.88;101361.97;5057036;28;22061;-72
2021/11/12 11:17:43;;;;;;;43.53;26.08;;;;;;;6.06;92.53;101361.06;5049381;28;20166;-74
2021/11/12 11:20:14;;;;;;;41.95;24.00;;;;;;;6.15;93.08;101364.59;5054313;28;20044;-72
2021/11/12 11:22:56;;;;;;;45.75;25.60;;;;;;;6.13;92.82;101356.84;5055067;28;20080;-72
2021/11/12 11:25:25;;;;;;;45.63;26.95;;;;;;;6.14;92.58;101371.44;5054752;28;20083;-72
2021/11/12 11:27:53;;;;;;;44.50;26.38;;;;;;;6.19;93.07;101363.75;5055099;28;20727;-73
2021/11/12 11:30:19;;;;;;;41.75;25.65;;;;;;;6.21;91.86;101344.84;5055499;28;20044;-72
2021/11/12 11:32:46;;;;;;;39.90;24.73;;;;;;;6.27;92.38;101345.75;5055646;28;20070;-73
2021/11/12 11:35:13;;;;;;;36.80;23.55;;;;;;;6.33;91.62;101343.22;5052914;28;20148;-73
2021/11/12 11:37:41;;;;;;;39.50;24.63;;;;;;;6.35;91.11;101341.50;5062860;28;20078;-73
2021/11/12 11:40:11;;;;;;;40.47;25.67;;;;;;;6.37;90.83;101339.78;5056769;28;20106;-72
2021/11/12 11:42:39;;;;;;;39.92;25.42;;;;;;;6.38;91.53;101346.69;5058040;28;20461;-72
2021/11/12 11:45:07;;;;;;;43.10;26.35;;;;;;;6.43;91.23;101344.16;5054643;28;20044;-73
2021/11/12 11:47:34;;;;;;;45.42;28.58;;;;;;;6.46;91.42;101341.59;5051294;28;20063;-71
2021/11/12 11:50:02;;;;;;;46.60;29.40;;;;;;;6.46;91.28;101336.44;5047870;28;20687;-72
2021/11/12 11:52:31;;;;;;;42.10;27.95;;;;;;;6.60;90.10;101331.34;5051304;28;20044;-73
2021/11/12 11:54:58;;;;;;;42.78;27.65;;;;;;;6.52;89.50;101316.66;5059917;28;20639;-73
2021/11/12 11:57:27;;;;;;;41.42;25.58;;;;;;;6.60;89.78;101313.25;5056454;28;20041;-73
2021/11/12 12:00:18;;;;;;;40.92;25.15;;;;;;;6.54;89.76;101304.59;5055190;28;20223;-74
2021/11/12 12:02:44;;;;;;;38.10;24.17;;;;;;;6.53;89.88;101302.00;5055803;28;20515;-74
2021/11/12 12:05:11;;;;;;;40.65;23.77;;;;;;;6.61;89.66;101297.75;5047911;28;20095;-73
2021/11/12 12:07:49;;;;;;;36.63;22.83;;;;;;;6.73;88.64;101299.56;5047446;28;20053;-73
2021/11/12 12:10:24;;;;;;;33.28;21.92;;;;;;;6.70;88.72;101302.13;5058155;28;20044;-74
2021/11/12 12:12:57;;;;;;;37.00;22.13;;;;;;;6.83;89.47;101309.09;5056061;28;20045;-72
2021/11/12 12:15:35;;;;;;;35.25;21.92;;;;;;;6.91;89.33;101308.28;5062292;28;20044;-74
2021/11/12 12:18:23;;;;;;;31.15;19.00;;;;;;;6.98;89.00;101307.44;5058572;28;20066;-74
2021/11/12 12:33:28;;;;;;;30.92;19.38;;;;;;;7.08;87.84;101270.41;5061753;28;20051;-73
2021/11/12 13:22:17;;;;;;;29.48;18.85;;;;;;;7.93;85.04;101190.28;5061743;28;20051;-75
2021/11/12 13:24:52;;;;;;;32.40;18.90;;;;;;;7.93;85.33;101190.28;5057254;28;20056;-75
2021/11/12 13:27:18;;;;;;;30.83;18.98;;;;;;;7.99;84.50;101185.94;5059050;28;20558;-74
2021/11/12 13:29:45;;;;;;;28.40;16.05;;;;;;;7.98;84.09;101185.09;5056212;28;20490;-75
2021/11/12 13:32:11;;;;;;;30.13;16.67;;;;;;;8.15;83.09;101191.97;5057234;28;20453;-75
2021/11/12 13:34:43;;;;;;;28.58;16.00;;;;;;;8.18;82.88;101186.78;5054779;28;20498;-75
2021/11/12 13:37:19;;;;;;;29.08;17.70;;;;;;;8.21;83.32;101191.97;5057766;28;20048;-75
2021/11/12 13:39:46;;;;;;;24.75;15.48;;;;;;;8.31;83.33;101191.09;5063387;28;20616;-75
2021/11/12 13:42:12;;;;;;;25.10;15.43;;;;;;;8.34;82.34;101188.47;5057060;28;20044;-75
2021/11/12 13:44:40;;;;;;;23.15;15.55;;;;;;;8.33;82.36;101191.97;5060340;28;20052;-72
2021/11/12 13:47:10;;;;;;;28.05;17.00;;;;;;;8.37;82.31;101191.06;5057694;28;20053;-75
2021/11/12 13:49:40;;;;;;;28.85;16.90;;;;;;;8.43;82.01;101191.94;5058674;28;20525;-74
2021/11/12 13:52:09;;;;;;;24.65;16.05;;;;;;;8.46;81.58;101192.78;5055803;28;20573;-75
2021/11/12 13:54:41;;;;;;;25.83;15.68;;;;;;;8.48;81.70;101182.44;5054432;28;20051;-74
2021/11/12 13:57:10;;;;;;;34.00;16.25;;;;;;;8.49;82.28;101174.63;5057138;28;20044;-74
2021/11/12 13:59:37;;;;;;;26.95;16.73;;;;;;;8.44;82.40;101172.88;5058191;28;20105;-75
2021/11/12 14:02:05;;;;;;;30.10;17.38;;;;;;;8.44;82.12;101159.94;5054173;28;20506;-75
2021/11/12 14:04:33;;;;;;;27.67;17.05;;;;;;;8.45;82.33;101144.38;5055734;28;20504;-75
2021/11/12 14:07:00;;;;;;;31.08;16.52;;;;;;;8.35;82.12;101143.53;5058085;28;20080;-75
2021/11/12 14:09:33;;;;;;;27.88;17.15;;;;;;;8.37;82.56;101139.22;5056306;28;20080;-75
2021/11/12 14:12:10;;;;;;;30.42;17.65;;;;;;;8.39;82.90;101129.72;5061917;28;20346;-75
2021/11/12 14:14:39;;;;;;;24.80;16.45;;;;;;;8.36;83.03;101118.50;5056945;28;20167;-74
2021/11/12 14:17:18;;;;;;;29.23;17.65;;;;;;;8.38;82.62;101111.59;5052516;28;20453;-71
2021/11/12 14:19:54;;;;;;;27.80;16.90;;;;;;;8.37;82.30;101108.13;5064693;28;20053;-73
2021/11/12 14:22:31;;;;;;;24.77;15.43;;;;;;;8.42;83.20;101102.06;5056260;28;20053;-73
2021/11/12 14:25:10;;;;;;;28.13;17.02;;;;;;;8.39;83.17;101093.44;5061641;28;20456;-73
2021/11/12 14:27:42;;;;;;;34.05;16.73;;;;;;;8.33;83.09;101088.28;5058267;28;20052;-73
2021/11/12 14:30:43;;;;;;;29.98;17.90;;;;;;;8.27;83.03;101088.28;5052658;28;20517;-71
2021/11/12 14:33:21;;;;;;;31.67;16.85;;;;;;;8.30;83.64;101092.59;5056294;28;20056;-73
2021/11/12 14:35:55;;;;;;;36.92;18.02;;;;;;;8.24;83.32;101083.09;5058523;28;20502;-72
2021/11/12 14:38:30;;;;;;;28.83;17.75;;;;;;;8.28;83.24;101090.00;5059821;28;20045;-73
2021/11/12 14:41:23;;;;;;;26.40;15.60;;;;;;;8.31;83.21;101079.66;5058676;28;20127;-72
2021/11/12 14:44:13;;;;;;;26.95;16.42;;;;;;;8.20;83.44;101081.41;5048426;28;21881;-71
2021/11/12 14:46:56;;;;;;;28.95;16.77;;;;;;;8.19;83.25;101083.13;5065518;28;20083;-70
2021/11/12 14:49:30;;;;;;;32.70;18.05;;;;;;;8.28;83.56;101079.66;5054519;28;20102;-72
2021/11/12 14:52:02;;;;;;;29.60;16.92;;;;;;;8.24;82.90;101083.09;5052158;28;20456;-71
2021/11/12 14:54:33;;;;;;;29.85;16.92;;;;;;;8.19;82.98;101082.28;5058485;28;20065;-72
2021/11/12 14:57:01;;;;;;;36.20;17.52;;;;;;;8.14;83.34;101077.13;5053443;28;20056;-71
2021/11/12 14:59:30;;;;;;;26.55;16.55;;;;;;;8.11;84.29;101074.53;5058024;28;20059;-70
2021/11/12 15:04:40;;;;;;;28.80;16.20;;;;;;;8.06;83.98;101063.31;5069138;28;20037;-73